Time;durP1;ratioP1;P1;durP2;ratioP2;P2;SDS_P1;SDS_P2;PMS_P1;PMS_P2;Temp;Humidity;BMP_temperature;BMP_pressure;BME280_temperature;BME280_humidity;BME280_pressure;Samples;Min_cycle;Max_cycle;Signal;HPM_P1;HPM_P2
2023/07/17 00:00:24;;;;;;;8.93;3.50;;;24.10;99.80;;;;;;5046647;28;20230;-75
2023/07/17 00:02:49;;;;;;;4.18;3.10;;;24.10;99.60;;;;;;5046877;28;20722;-74
2023/07/17 00:05:16;;;;;;;4.85;3.35;;;24.10;99.30;;;;;;5047619;28;20181;-76
2023/07/17 00:07:42;;;;;;;5.57;3.05;;;24.10;99.00;;;;;;5047062;28;20578;-75
2023/07/17 00:10:09;;;;;;;6.45;3.60;;;24.10;99.00;;;;;;5044551;28;20215;-76
2023/07/17 00:12:35;;;;;;;8.55;3.58;;;24.10;99.00;;;;;;5046762;28;20222;-76
2023/07/17 00:15:05;;;;;;;6.50;3.88;;;24.00;99.40;;;;;;5047340;28;20207;-76
2023/07/17 00:17:31;;;;;;;5.22;3.33;;;24.00;99.50;;;;;;5047922;28;20204;-75
2023/07/17 00:19:57;;;;;;;5.13;3.70;;;24.00;99.50;;;;;;5046891;28;20283;-75
2023/07/17 00:22:24;;;;;;;4.53;3.60;;;24.00;99.60;;;;;;5044745;28;20208;-75
2023/07/17 00:24:50;;;;;;;5.10;3.50;;;24.00;99.80;;;;;;5045696;28;20212;-72
2023/07/17 00:27:16;;;;;;;5.82;3.38;;;24.00;99.90;;;;;;5045756;28;20705;-75
2023/07/17 00:29:44;;;;;;;5.63;3.67;;;23.90;99.90;;;;;;5042005;28;20222;-75
2023/07/17 00:32:13;;;;;;;6.30;3.60;;;23.90;99.90;;;;;;5044732;28;20586;-74
2023/07/17 00:34:42;;;;;;;5.55;3.60;;;23.90;99.90;;;;;;5034875;28;20180;-73
2023/07/17 00:37:08;;;;;;;6.07;3.22;;;23.80;99.90;;;;;;5045373;28;20244;-74
2023/07/17 00:39:34;;;;;;;6.65;3.58;;;23.80;99.90;;;;;;5044850;28;20207;-75
2023/07/17 00:42:01;;;;;;;4.50;3.25;;;23.70;99.90;;;;;;5047791;28;20207;-74
2023/07/17 00:44:27;;;;;;;4.25;3.03;;;23.60;99.90;;;;;;5045190;28;20207;-74
2023/07/17 00:46:54;;;;;;;4.63;3.67;;;23.70;99.90;;;;;;5047358;28;20576;-74
2023/07/17 00:49:25;;;;;;;4.50;3.15;;;23.70;99.90;;;;;;5046788;28;20233;-75
2023/07/17 00:51:52;;;;;;;7.60;3.95;;;23.70;99.90;;;;;;5042964;28;20755;-75
2023/07/17 00:54:19;;;;;;;9.43;3.60;;;23.70;99.90;;;;;;5044089;28;20760;-73
2023/07/17 00:56:46;;;;;;;7.50;3.67;;;23.70;99.90;;;;;;5047767;28;20265;-73
2023/07/17 00:59:12;;;;;;;4.43;3.10;;;23.60;99.90;;;;;;5048150;28;20207;-74
2023/07/17 01:01:40;;;;;;;4.60;3.35;;;23.60;99.90;;;;;;5044830;28;20246;-73
2023/07/17 01:04:06;;;;;;;5.10;3.33;;;23.60;99.90;;;;;;5057131;28;20698;-75
2023/07/17 01:06:34;;;;;;;5.32;3.45;;;23.60;99.90;;;;;;5040372;28;20274;-74
2023/07/17 01:09:01;;;;;;;3.92;3.17;;;23.60;99.90;;;;;;5044286;28;20257;-76
2023/07/17 01:11:26;;;;;;;5.22;3.85;;;23.60;99.90;;;;;;5042622;28;20585;-76
2023/07/17 01:13:52;;;;;;;6.28;3.25;;;23.50;99.90;;;;;;5043688;28;20179;-75
2023/07/17 01:16:18;;;;;;;5.10;3.05;;;23.40;99.90;;;;;;5044153;28;20212;-76
2023/07/17 01:18:43;;;;;;;6.88;3.33;;;23.30;99.90;;;;;;5043890;28;20231;-75
2023/07/17 01:21:12;;;;;;;5.10;3.22;;;23.30;99.90;;;;;;5044888;28;20230;-75
2023/07/17 01:23:38;;;;;;;8.32;3.63;;;23.40;99.90;;;;;;5047021;28;20651;-75
2023/07/17 01:26:17;;;;;;;5.18;3.30;;;23.40;99.90;;;;;;5045668;28;20203;-75
2023/07/17 01:28:43;;;;;;;5.05;3.20;;;23.30;99.90;;;;;;5046637;28;20195;-74
2023/07/17 01:31:10;;;;;;;5.50;3.60;;;23.30;99.90;;;;;;5046167;28;20689;-75
2023/07/17 01:33:36;;;;;;;6.85;3.10;;;23.30;99.90;;;;;;5047424;28;20689;-75
2023/07/17 01:36:04;;;;;;;6.75;3.92;;;23.30;99.90;;;;;;5046843;28;20223;-74
2023/07/17 01:38:30;;;;;;;4.13;2.92;;;23.30;99.90;;;;;;5040588;28;20212;-75
2023/07/17 01:40:55;;;;;;;8.77;3.20;;;23.40;99.90;;;;;;5043903;28;20188;-75
2023/07/17 01:43:21;;;;;;;4.85;3.50;;;23.20;99.90;;;;;;5040552;28;20216;-74
2023/07/17 01:45:47;;;;;;;7.95;3.58;;;23.20;99.90;;;;;;5041977;28;20639;-75
2023/07/17 01:48:14;;;;;;;3.97;3.58;;;23.30;99.90;;;;;;5043631;28;20303;-74
2023/07/17 01:50:41;;;;;;;6.00;3.58;;;23.10;99.90;;;;;;5042766;28;20222;-74
2023/07/17 01:53:06;;;;;;;5.05;3.53;;;23.10;99.90;;;;;;5045714;28;20192;-74
2023/07/17 01:55:32;;;;;;;4.78;3.70;;;23.20;99.90;;;;;;5044414;28;20247;-74
2023/07/17 01:57:58;;;;;;;4.93;3.85;;;23.10;99.90;;;;;;5044281;28;20211;-75
2023/07/17 02:00:24;;;;;;;5.55;3.33;;;23.10;99.90;;;;;;5043640;28;20208;-74
2023/07/17 02:02:50;;;;;;;5.63;3.65;;;23.00;99.90;;;;;;5046887;28;20595;-73
2023/07/17 02:05:16;;;;;;;6.93;4.18;;;23.00;99.90;;;;;;5045982;28;20188;-76
2023/07/17 02:07:42;;;;;;;5.13;3.80;;;23.00;99.90;;;;;;5047397;28;20301;-76
2023/07/17 02:10:08;;;;;;;4.40;3.95;;;23.10;99.90;;;;;;5046778;28;20207;-74
2023/07/17 02:12:34;;;;;;;5.38;3.63;;;23.00;99.90;;;;;;5048879;28;20708;-76
2023/07/17 02:14:59;;;;;;;7.10;4.03;;;22.90;99.90;;;;;;5047774;28;20204;-76
2023/07/17 02:17:25;;;;;;;5.32;3.47;;;22.60;99.90;;;;;;5040802;28;20717;-75
2023/07/17 02:19:50;;;;;;;6.00;3.83;;;22.50;99.90;;;;;;5048233;28;20602;-75
2023/07/17 02:22:16;;;;;;;5.05;3.55;;;22.40;99.90;;;;;;5045840;28;20215;-76
2023/07/17 02:24:42;;;;;;;5.30;3.92;;;22.50;99.90;;;;;;5047771;28;20207;-75
2023/07/17 02:27:07;;;;;;;6.18;3.88;;;22.50;99.90;;;;;;5045080;28;20307;-76
2023/07/17 02:29:33;;;;;;;4.45;3.60;;;22.40;99.90;;;;;;5045271;28;20283;-76
2023/07/17 02:31:59;;;;;;;6.45;3.85;;;22.20;99.90;;;;;;5047521;28;20234;-76
2023/07/17 02:34:24;;;;;;;5.25;3.80;;;22.10;99.90;;;;;;5047506;28;20204;-76
2023/07/17 02:36:52;;;;;;;5.15;4.00;;;22.10;99.90;;;;;;5048196;28;20237;-76
2023/07/17 02:39:18;;;;;;;7.15;4.28;;;22.10;99.90;;;;;;5048808;28;20220;-76
2023/07/17 02:41:44;;;;;;;6.88;4.00;;;22.10;99.90;;;;;;5050228;28;20241;-75
2023/07/17 02:44:09;;;;;;;5.97;4.00;;;22.00;99.90;;;;;;5058039;28;20262;-75
2023/07/17 02:46:35;;;;;;;9.65;3.88;;;22.00;99.90;;;;;;5051550;28;20168;-73
2023/07/17 02:49:01;;;;;;;4.90;3.75;;;22.00;99.90;;;;;;5046100;28;20214;-75
2023/07/17 02:51:26;;;;;;;4.10;3.67;;;22.00;99.90;;;;;;5044600;28;20215;-75
2023/07/17 02:53:52;;;;;;;6.65;4.38;;;22.10;99.90;;;;;;5050532;28;20203;-74
2023/07/17 02:56:17;;;;;;;5.65;4.63;;;22.10;99.90;;;;;;5045416;28;20573;-73
2023/07/17 02:58:48;;;;;;;12.20;7.82;;;22.00;99.90;;;;;;5043873;28;20206;-74
2023/07/17 03:01:14;;;;;;;8.15;5.55;;;22.00;99.90;;;;;;5044810;28;20280;-74
2023/07/17 03:03:40;;;;;;;6.47;4.60;;;22.00;99.90;;;;;;5040485;28;20200;-73
2023/07/17 03:06:06;;;;;;;7.57;4.13;;;22.00;99.90;;;;;;5046145;28;20227;-73
2023/07/17 03:08:31;;;;;;;8.65;4.70;;;22.00;99.90;;;;;;5049921;28;20218;-75
2023/07/17 03:11:01;;;;;;;6.95;4.13;;;21.90;99.90;;;;;;5061031;28;20673;-75
2023/07/17 03:13:26;;;;;;;7.72;3.78;;;21.90;99.90;;;;;;5052621;28;20208;-74
2023/07/17 03:15:55;;;;;;;4.05;3.35;;;21.80;99.90;;;;;;5044817;28;20210;-73
2023/07/17 03:18:20;;;;;;;6.35;4.30;;;21.90;99.90;;;;;;5047047;28;20294;-73
2023/07/17 03:20:46;;;;;;;9.40;4.70;;;21.80;99.90;;;;;;5048012;28;20314;-75
2023/07/17 03:23:11;;;;;;;5.03;3.95;;;21.90;99.90;;;;;;5044098;28;20191;-74
2023/07/17 03:25:41;;;;;;;7.18;4.32;;;21.90;99.90;;;;;;5049340;28;20706;-74
2023/07/17 03:28:06;;;;;;;7.10;4.72;;;21.90;99.90;;;;;;5042259;28;20210;-75
2023/07/17 03:30:32;;;;;;;5.65;4.10;;;21.90;99.90;;;;;;5046067;28;20925;-76
2023/07/17 03:32:58;;;;;;;8.82;4.57;;;21.90;99.90;;;;;;5046416;28;20216;-74
2023/07/17 03:35:23;;;;;;;5.10;4.15;;;21.90;99.90;;;;;;5047630;28;20709;-75
2023/07/17 03:37:49;;;;;;;6.22;4.10;;;21.90;99.90;;;;;;5044037;28;20522;-75
2023/07/17 03:40:15;;;;;;;8.57;4.18;;;22.00;99.90;;;;;;5048885;28;20602;-74
2023/07/17 03:42:40;;;;;;;6.38;4.10;;;22.40;99.90;;;;;;5049439;28;20204;-76
2023/07/17 03:45:06;;;;;;;5.22;3.78;;;22.80;99.90;;;;;;5047390;28;20204;-76
2023/07/17 03:47:32;;;;;;;5.60;4.25;;;23.40;99.90;;;;;;5048985;28;20218;-75
2023/07/17 03:49:58;;;;;;;6.90;4.07;;;23.60;99.90;;;;;;5043876;28;20180;-74
2023/07/17 03:52:23;;;;;;;6.10;3.95;;;24.00;99.90;;;;;;5047000;28;20873;-76
2023/07/17 03:54:49;;;;;;;7.43;4.15;;;24.60;99.90;;;;;;5049590;28;20203;-75
2023/07/17 03:57:14;;;;;;;9.37;5.07;;;25.10;99.90;;;;;;5044747;28;20573;-74
2023/07/17 03:59:51;;;;;;;11.30;4.15;;;24.60;99.90;;;;;;5048793;28;20302;-74
2023/07/17 04:02:17;;;;;;;7.30;4.20;;;24.10;99.90;;;;;;5045094;28;20199;-76
2023/07/17 04:04:42;;;;;;;5.80;3.90;;;23.80;99.90;;;;;;5042695;28;20667;-75
2023/07/17 04:07:08;;;;;;;9.43;4.47;;;24.20;99.90;;;;;;5048753;28;20211;-75
2023/07/17 04:09:33;;;;;;;7.38;4.28;;;24.80;99.90;;;;;;5042071;28;20207;-76
2023/07/17 04:11:59;;;;;;;6.53;4.07;;;25.60;99.90;;;;;;5045384;28;20265;-75
2023/07/17 04:14:25;;;;;;;6.95;4.40;;;26.50;99.90;;;;;;5047946;28;20659;-75
2023/07/17 04:16:51;;;;;;;6.78;4.30;;;26.80;99.90;;;;;;5049413;28;20182;-75
2023/07/17 04:19:16;;;;;;;7.00;4.15;;;25.80;99.90;;;;;;5047128;28;20302;-76
2023/07/17 04:21:42;;;;;;;8.57;4.75;;;25.30;99.90;;;;;;5047394;28;20211;-75
2023/07/17 04:24:08;;;;;;;7.07;4.32;;;24.80;99.90;;;;;;5047193;28;20282;-75
2023/07/17 04:26:33;;;;;;;5.07;4.30;;;24.50;99.90;;;;;;5046484;28;20204;-76
2023/07/17 04:28:59;;;;;;;6.55;4.00;;;24.10;99.90;;;;;;5046803;28;20203;-76
2023/07/17 04:31:24;;;;;;;5.55;4.13;;;23.90;99.90;;;;;;5046560;28;20215;-76
2023/07/17 04:33:50;;;;;;;6.28;3.90;;;24.90;99.90;;;;;;5048267;28;20215;-75
2023/07/17 04:36:16;;;;;;;9.80;4.07;;;26.70;99.90;;;;;;5047777;28;20207;-76
2023/07/17 04:38:41;;;;;;;5.25;3.67;;;28.00;99.90;;;;;;5063730;28;20665;-76
2023/07/17 04:41:07;;;;;;;4.55;4.13;;;29.30;99.90;;;;;;5044539;28;20172;-76
2023/07/17 04:43:33;;;;;;;6.25;3.53;;;30.30;98.40;;;;;;5048613;28;20179;-76
2023/07/17 04:45:58;;;;;;;5.85;4.15;;;31.20;96.40;;;;;;5040640;28;20238;-76
2023/07/17 04:48:25;;;;;;;6.20;4.28;;;31.50;95.10;;;;;;5043506;28;20231;-76
2023/07/17 04:50:52;;;;;;;4.85;4.30;;;32.50;93.30;;;;;;5042946;28;20423;-75
2023/07/17 04:53:18;;;;;;;4.82;4.38;;;32.50;91.90;;;;;;5042175;28;20921;-76
2023/07/17 04:55:44;;;;;;;6.38;4.47;;;32.80;91.20;;;;;;5042937;28;20168;-76
2023/07/17 04:58:09;;;;;;;5.72;4.15;;;33.20;90.50;;;;;;5047734;28;20215;-75
2023/07/17 05:00:35;;;;;;;4.60;4.13;;;33.70;89.10;;;;;;5053393;28;20218;-75
2023/07/17 05:03:01;;;;;;;5.97;3.70;;;33.90;87.50;;;;;;5046789;28;20211;-75
2023/07/17 05:05:27;;;;;;;7.40;4.28;;;33.60;85.70;;;;;;5044322;28;20210;-75
2023/07/17 05:07:53;;;;;;;6.50;4.30;;;32.00;87.30;;;;;;5046519;28;20186;-75
2023/07/17 05:10:19;;;;;;;6.43;4.25;;;30.40;90.40;;;;;;5047620;28;20207;-73
2023/07/17 05:12:44;;;;;;;5.43;4.03;;;29.30;91.80;;;;;;5042180;28;20257;-74
2023/07/17 05:15:10;;;;;;;6.68;4.70;;;28.10;93.50;;;;;;5047347;28;20195;-73
2023/07/17 05:17:36;;;;;;;5.90;4.03;;;27.60;95.10;;;;;;5052803;28;20218;-74
2023/07/17 05:20:04;;;;;;;5.45;4.20;;;27.10;96.10;;;;;;5037955;28;20203;-74
2023/07/17 05:22:30;;;;;;;5.97;4.20;;;26.60;96.90;;;;;;5044147;28;20250;-74
2023/07/17 05:24:56;;;;;;;4.78;4.20;;;26.20;97.90;;;;;;5041714;28;20205;-74
2023/07/17 05:27:22;;;;;;;6.38;4.72;;;25.80;99.20;;;;;;5040799;28;20212;-72
2023/07/17 05:29:48;;;;;;;7.70;5.05;;;25.80;99.90;;;;;;5045443;28;20204;-75
2023/07/17 05:32:13;;;;;;;6.68;4.50;;;27.30;98.80;;;;;;5044208;28;20704;-74
2023/07/17 05:34:39;;;;;;;9.52;4.22;;;29.20;96.50;;;;;;5043403;28;20176;-74
2023/07/17 05:37:05;;;;;;;8.93;4.70;;;30.20;94.50;;;;;;5041331;28;20203;-75
2023/07/17 05:39:31;;;;;;;5.65;4.28;;;31.30;93.00;;;;;;5044398;28;20231;-75
2023/07/17 05:41:56;;;;;;;6.78;4.72;;;31.70;91.50;;;;;;5042487;28;20203;-75
2023/07/17 05:44:22;;;;;;;6.25;4.18;;;32.60;90.10;;;;;;5047732;28;20706;-74
2023/07/17 05:46:48;;;;;;;6.63;4.85;;;32.70;88.30;;;;;;5043207;28;20180;-74
2023/07/17 05:49:13;;;;;;;5.90;4.45;;;33.40;85.80;;;;;;5042352;28;20211;-75
2023/07/17 05:51:39;;;;;;;6.20;4.88;;;33.30;85.10;;;;;;5047795;28;20847;-75
2023/07/17 05:54:06;;;;;;;9.68;5.15;;;34.00;83.30;;;;;;5062539;28;20206;-73
2023/07/17 05:56:31;;;;;;;6.85;4.78;;;33.80;81.20;;;;;;5040316;28;20361;-76
2023/07/17 05:58:57;;;;;;;8.48;5.18;;;33.50;81.70;;;;;;5056974;28;20599;-75
2023/07/17 06:01:22;;;;;;;7.05;5.03;;;33.50;81.50;;;;;;5045519;28;20238;-73
2023/07/17 06:03:48;;;;;;;5.22;4.43;;;33.20;81.70;;;;;;5043252;28;20264;-75
2023/07/17 06:06:14;;;;;;;5.22;4.68;;;33.90;80.70;;;;;;5051773;28;20692;-76
2023/07/17 06:08:39;;;;;;;7.85;4.88;;;34.20;79.40;;;;;;5044282;28;21053;-73
2023/07/17 06:11:05;;;;;;;9.15;4.50;;;33.40;78.50;;;;;;5047038;28;20545;-74
2023/07/17 06:13:30;;;;;;;6.50;4.05;;;34.20;79.00;;;;;;5065433;28;20512;-76
2023/07/17 06:15:56;;;;;;;7.60;4.45;;;34.50;78.70;;;;;;5046004;28;20203;-75
2023/07/17 06:18:22;;;;;;;5.50;4.72;;;35.00;76.40;;;;;;5047215;28;20289;-74
2023/07/17 06:20:53;;;;;;;7.30;4.32;;;35.20;75.00;;;;;;5040139;28;20223;-72
2023/07/17 06:23:19;;;;;;;4.80;4.03;;;35.60;74.80;;;;;;5041658;28;20636;-74
2023/07/17 06:25:45;;;;;;;7.00;4.38;;;36.30;73.40;;;;;;5049841;28;20179;-75
2023/07/17 06:28:11;;;;;;;6.38;4.75;;;36.90;71.60;;;;;;5046318;28;20211;-75
2023/07/17 06:30:37;;;;;;;4.78;4.32;;;36.00;71.90;;;;;;5048504;28;20222;-74
2023/07/17 06:33:02;;;;;;;9.07;4.90;;;34.90;73.20;;;;;;5046975;28;20329;-74
2023/07/17 06:35:28;;;;;;;6.30;4.75;;;33.90;74.70;;;;;;5045200;28;20572;-75
2023/07/17 06:37:54;;;;;;;5.35;3.90;;;32.80;77.20;;;;;;5045072;28;20252;-74
2023/07/17 06:40:19;;;;;;;7.90;4.68;;;32.00;78.70;;;;;;5042539;28;20576;-74
2023/07/17 06:42:45;;;;;;;7.57;4.65;;;31.20;80.20;;;;;;5044069;28;20223;-75
2023/07/17 06:45:11;;;;;;;5.10;3.97;;;30.10;82.10;;;;;;5043204;28;20227;-75
2023/07/17 06:47:37;;;;;;;5.80;3.92;;;29.50;84.40;;;;;;5043421;28;20220;-75
2023/07/17 06:50:02;;;;;;;5.82;4.30;;;29.30;86.30;;;;;;5046143;28;20301;-75
2023/07/17 06:52:28;;;;;;;8.32;4.03;;;30.90;83.70;;;;;;5043546;28;20596;-73
2023/07/17 06:54:54;;;;;;;7.32;4.85;;;32.90;80.30;;;;;;5046562;28;20291;-75
2023/07/17 06:57:20;;;;;;;5.43;4.30;;;34.50;76.80;;;;;;5044206;28;20207;-75
2023/07/17 06:59:46;;;;;;;4.78;3.97;;;35.60;74.70;;;;;;5041932;28;20219;-76
2023/07/17 07:02:12;;;;;;;7.15;4.50;;;36.00;72.50;;;;;;5048305;28;20217;-75
2023/07/17 07:04:38;;;;;;;7.22;4.78;;;35.50;71.90;;;;;;5049798;28;20189;-74
2023/07/17 07:07:04;;;;;;;5.63;4.78;;;35.30;72.20;;;;;;5046050;28;20306;-75
2023/07/17 07:09:30;;;;;;;7.35;4.72;;;34.40;72.30;;;;;;5056009;28;20219;-74
2023/07/17 07:11:55;;;;;;;4.40;4.00;;;34.80;72.80;;;;;;5048075;28;20227;-74
2023/07/17 07:14:21;;;;;;;5.45;4.72;;;35.20;72.50;;;;;;5042846;28;20215;-76
2023/07/17 07:16:46;;;;;;;6.43;4.75;;;36.50;69.50;;;;;;5043655;28;20211;-75
2023/07/17 07:19:12;;;;;;;6.47;4.30;;;37.00;68.70;;;;;;5045440;28;20276;-74
2023/07/17 07:21:38;;;;;;;5.07;4.57;;;37.80;67.40;;;;;;5046367;28;20230;-74
2023/07/17 07:24:04;;;;;;;5.32;4.47;;;38.10;66.30;;;;;;5044281;28;20582;-75
2023/07/17 07:26:31;;;;;;;7.45;4.85;;;38.70;65.10;;;;;;5041676;28;20651;-75
2023/07/17 07:28:57;;;;;;;6.47;4.80;;;38.90;64.40;;;;;;5038087;28;20191;-74
2023/07/17 07:31:23;;;;;;;5.47;4.30;;;39.40;62.10;;;;;;5035451;28;20212;-75
2023/07/17 07:33:48;;;;;;;7.22;4.72;;;39.60;61.60;;;;;;5039264;28;20745;-75
2023/07/17 07:36:14;;;;;;;6.10;5.22;;;39.60;60.80;;;;;;5044244;28;20221;-75
2023/07/17 07:38:39;;;;;;;7.32;4.80;;;39.70;60.60;;;;;;5040370;28;20252;-73
2023/07/17 07:41:05;;;;;;;5.72;4.38;;;39.60;60.50;;;;;;5045454;28;20172;-74
2023/07/17 07:43:31;;;;;;;5.20;4.68;;;39.80;60.30;;;;;;5061053;28;20190;-75
2023/07/17 07:45:56;;;;;;;7.25;4.65;;;40.10;59.50;;;;;;5041636;28;20312;-75
2023/07/17 07:48:22;;;;;;;5.28;4.72;;;40.30;58.80;;;;;;5044868;28;20655;-75
2023/07/17 07:50:47;;;;;;;6.68;4.80;;;40.20;58.60;;;;;;5045938;28;20272;-74
2023/07/17 07:53:13;;;;;;;5.32;4.82;;;40.20;58.70;;;;;;5059749;28;20205;-76
2023/07/17 07:55:39;;;;;;;7.03;4.32;;;40.00;58.40;;;;;;5044699;28;20215;-76
2023/07/17 07:58:04;;;;;;;4.88;3.97;;;39.60;58.40;;;;;;5046036;28;20222;-75
2023/07/17 08:00:30;;;;;;;3.88;3.45;;;39.10;58.70;;;;;;5039321;28;20219;-75
2023/07/17 08:02:56;;;;;;;7.10;4.65;;;39.20;58.00;;;;;;5046447;28;20316;-76
2023/07/17 08:05:22;;;;;;;7.97;4.20;;;39.40;58.10;;;;;;5040779;28;20231;-79
2023/07/17 08:07:48;;;;;;;5.18;4.00;;;39.20;57.90;;;;;;5046485;28;20195;-77
2023/07/17 08:10:13;;;;;;;4.97;4.47;;;38.90;58.30;;;;;;5047161;28;20582;-76
2023/07/17 08:12:39;;;;;;;6.00;4.28;;;39.10;57.70;;;;;;5045592;28;20211;-75
2023/07/17 08:15:07;;;;;;;5.40;4.32;;;39.40;57.80;;;;;;5044863;28;20214;-76
2023/07/17 08:17:34;;;;;;;4.35;3.95;;;39.10;57.60;;;;;;5044926;28;20290;-76
2023/07/17 08:19:59;;;;;;;6.32;4.38;;;39.30;58.30;;;;;;5048083;28;20261;-77
2023/07/17 08:22:25;;;;;;;6.05;3.97;;;39.40;57.40;;;;;;5041944;28;20207;-77
2023/07/17 08:24:50;;;;;;;6.30;4.15;;;39.30;56.80;;;;;;5045263;28;20290;-77
2023/07/17 08:27:16;;;;;;;6.13;4.15;;;38.60;57.40;;;;;;5049124;28;20253;-77
2023/07/17 08:29:42;;;;;;;4.95;3.85;;;38.40;58.00;;;;;;5044672;28;20211;-77
2023/07/17 08:32:10;;;;;;;5.65;4.20;;;38.50;57.90;;;;;;5039237;28;20192;-76
2023/07/17 08:34:35;;;;;;;5.75;3.92;;;38.40;58.10;;;;;;5043866;28;20717;-77
2023/07/17 08:37:01;;;;;;;5.60;4.07;;;38.10;57.80;;;;;;5044479;28;20293;-77
2023/07/17 08:39:27;;;;;;;6.97;4.00;;;38.10;58.50;;;;;;5042549;28;20226;-77
2023/07/17 08:41:53;;;;;;;6.47;4.25;;;37.80;58.90;;;;;;5044923;28;20210;-76
2023/07/17 08:44:19;;;;;;;5.80;4.25;;;37.50;59.10;;;;;;5048604;28;20225;-76
2023/07/17 08:46:47;;;;;;;5.60;3.70;;;37.10;59.10;;;;;;5044810;28;20255;-76
2023/07/17 08:49:15;;;;;;;6.10;4.07;;;37.50;58.80;;;;;;5047112;28;20646;-76
2023/07/17 08:51:41;;;;;;;5.75;3.30;;;37.70;58.50;;;;;;5044824;28;20245;-76
2023/07/17 08:54:07;;;;;;;6.45;3.70;;;37.50;58.20;;;;;;5044624;28;20207;-77
2023/07/17 08:56:34;;;;;;;6.13;3.97;;;37.50;58.10;;;;;;5044144;28;20229;-76
2023/07/17 08:59:01;;;;;;;4.90;3.70;;;37.00;58.70;;;;;;5036762;28;20308;-77
2023/07/17 09:01:27;;;;;;;6.45;3.85;;;37.50;59.20;;;;;;5039421;28;20692;-76
2023/07/17 09:03:53;;;;;;;7.65;3.90;;;37.50;58.30;;;;;;5040933;28;20215;-76
2023/07/17 09:06:24;;;;;;;6.53;3.55;;;37.10;58.60;;;;;;5044297;28;20208;-76
2023/07/17 09:08:51;;;;;;;5.95;4.00;;;37.00;59.10;;;;;;5045093;28;20207;-77
2023/07/17 09:11:18;;;;;;;8.32;4.72;;;37.20;59.10;;;;;;5045679;28;20199;-77
2023/07/17 09:13:45;;;;;;;5.30;3.60;;;37.20;59.20;;;;;;5044548;28;20193;-75
2023/07/17 09:16:19;;;;;;;8.05;4.05;;;37.30;59.30;;;;;;5046353;28;20577;-77
2023/07/17 09:18:45;;;;;;;6.03;3.88;;;37.40;58.60;;;;;;5047432;28;20212;-74
2023/07/17 09:21:15;;;;;;;6.88;4.93;;;37.10;58.60;;;;;;5046164;28;20291;-77
2023/07/17 09:23:48;;;;;;;7.20;3.97;;;36.90;59.10;;;;;;5046421;28;20681;-77
2023/07/17 09:26:14;;;;;;;6.38;4.00;;;37.00;58.70;;;;;;5038252;28;20182;-77
2023/07/17 09:28:51;;;;;;;9.55;5.05;;;36.40;58.50;;;;;;5046393;28;20176;-75
2023/07/17 09:31:35;;;;;;;9.13;5.20;;;35.90;59.60;;;;;;5041775;28;20215;-77
2023/07/17 09:34:11;;;;;;;5.47;4.00;;;36.00;59.70;;;;;;5040911;28;20688;-77
2023/07/17 09:36:36;;;;;;;8.32;3.97;;;35.00;60.60;;;;;;5040306;28;20211;-76
2023/07/17 09:39:05;;;;;;;7.60;4.10;;;34.70;61.70;;;;;;5040460;28;20226;-77
2023/07/17 09:41:31;;;;;;;9.43;4.80;;;34.70;62.30;;;;;;5047548;28;20226;-77
2023/07/17 09:44:04;;;;;;;5.60;3.88;;;34.50;62.50;;;;;;5043350;28;20192;-77
2023/07/17 09:46:32;;;;;;;6.80;4.35;;;34.10;62.40;;;;;;5034925;28;20212;-77
2023/07/17 09:48:58;;;;;;;8.52;3.80;;;33.80;63.30;;;;;;5041833;28;20239;-77
2023/07/17 09:51:25;;;;;;;7.05;4.18;;;33.10;63.40;;;;;;5038727;28;20281;-78
2023/07/17 09:53:51;;;;;;;8.25;3.95;;;32.80;64.90;;;;;;5042645;28;20223;-77
2023/07/17 09:56:19;;;;;;;6.40;3.88;;;32.80;65.00;;;;;;5051636;28;20184;-77
2023/07/17 09:58:50;;;;;;;7.05;3.80;;;32.20;65.80;;;;;;5054203;28;20188;-75
2023/07/17 10:01:18;;;;;;;12.80;4.00;;;32.00;66.50;;;;;;5057071;28;20728;-76
2023/07/17 10:03:48;;;;;;;7.20;3.60;;;32.20;66.80;;;;;;5044939;28;20670;-76
2023/07/17 10:06:16;;;;;;;9.07;4.40;;;32.40;65.80;;;;;;5057315;28;20315;-77
2023/07/17 10:08:46;;;;;;;6.93;4.13;;;32.20;66.20;;;;;;5058111;28;20212;-75
2023/07/17 10:11:14;;;;;;;9.38;4.47;;;31.70;66.10;;;;;;5051570;28;20203;-72
2023/07/17 10:13:40;;;;;;;8.30;3.75;;;31.20;66.90;;;;;;5049257;28;20235;-73
2023/07/17 10:16:07;;;;;;;6.90;4.22;;;31.60;66.70;;;;;;5051311;28;20209;-74
2023/07/17 10:18:32;;;;;;;5.38;3.60;;;32.10;67.50;;;;;;5046544;28;20421;-73
2023/07/17 10:21:01;;;;;;;8.55;3.67;;;31.70;66.50;;;;;;5050236;28;20232;-74
2023/07/17 10:23:27;;;;;;;7.78;4.35;;;31.60;66.20;;;;;;5057701;28;20244;-73
2023/07/17 10:26:07;;;;;;;6.70;3.50;;;31.20;66.50;;;;;;5060219;28;20295;-74
2023/07/17 10:28:35;;;;;;;7.57;3.55;;;31.60;67.30;;;;;;5040058;28;20537;-74
2023/07/17 10:31:21;;;;;;;5.20;3.53;;;31.90;66.70;;;;;;5050082;28;20294;-74
2023/07/17 10:33:49;;;;;;;6.95;4.50;;;32.20;66.40;;;;;;5062898;28;20628;-73
2023/07/17 10:36:15;;;;;;;9.65;3.78;;;31.80;66.30;;;;;;5047654;28;20722;-73
2023/07/17 10:38:47;;;;;;;6.20;3.78;;;31.80;66.40;;;;;;5047349;28;20291;-73
2023/07/17 10:41:15;;;;;;;10.40;3.78;;;32.00;65.90;;;;;;5049071;28;20183;-74
2023/07/17 10:43:54;;;;;;;5.75;4.00;;;31.60;65.40;;;;;;5057861;28;20183;-74
2023/07/17 10:46:26;;;;;;;6.40;4.00;;;31.40;66.60;;;;;;5049640;28;20227;-74
2023/07/17 10:48:51;;;;;;;8.65;3.42;;;31.30;67.20;;;;;;5044444;28;20210;-74
2023/07/17 10:51:17;;;;;;;7.38;3.45;;;31.20;65.30;;;;;;5048089;28;20667;-74
2023/07/17 10:53:42;;;;;;;7.78;3.70;;;31.60;65.60;;;;;;5049707;28;20211;-75
2023/07/17 10:56:08;;;;;;;5.15;3.05;;;31.80;65.50;;;;;;5041902;28;20670;-74
2023/07/17 10:58:34;;;;;;;6.10;3.05;;;31.50;64.60;;;;;;5043710;28;20650;-74
2023/07/17 11:01:05;;;;;;;6.60;2.95;;;31.70;65.50;;;;;;5043744;28;20234;-74
2023/07/17 11:03:31;;;;;;;6.50;3.47;;;31.60;64.90;;;;;;5044087;28;20257;-73
2023/07/17 11:05:56;;;;;;;7.25;4.00;;;31.10;66.00;;;;;;5042946;28;20295;-73
2023/07/17 11:08:26;;;;;;;5.45;2.80;;;31.20;67.40;;;;;;5042180;28;20259;-74
2023/07/17 11:10:51;;;;;;;5.07;3.63;;;31.40;66.30;;;;;;5040270;28;20208;-73
2023/07/17 11:13:17;;;;;;;6.97;4.60;;;31.80;67.50;;;;;;5041098;28;20246;-73
2023/07/17 11:15:44;;;;;;;7.47;4.25;;;31.80;68.60;;;;;;5044988;28;20694;-74
2023/07/17 11:18:09;;;;;;;15.23;7.35;;;31.50;68.60;;;;;;5046899;28;20285;-74
2023/07/17 11:20:35;;;;;;;17.58;5.90;;;31.10;69.00;;;;;;5041121;28;20318;-74
2023/07/17 11:23:01;;;;;;;13.88;4.75;;;31.00;72.60;;;;;;5048876;28;20315;-75
2023/07/17 11:25:28;;;;;;;5.22;3.53;;;31.00;71.60;;;;;;5049582;28;20179;-75
2023/07/17 11:27:56;;;;;;;6.15;3.05;;;31.00;67.10;;;;;;5043051;28;20208;-76
2023/07/17 11:30:34;;;;;;;6.68;3.10;;;31.00;66.60;;;;;;5047207;28;20212;-77
2023/07/17 11:33:05;;;;;;;5.72;3.10;;;30.90;66.80;;;;;;5046478;28;20207;-77
2023/07/17 11:35:45;;;;;;;3.72;2.72;;;30.80;66.80;;;;;;5050395;28;20303;-78
2023/07/17 11:38:15;;;;;;;7.75;3.15;;;30.90;66.60;;;;;;5065149;28;22306;-83
2023/07/17 11:41:02;;;;;;;7.78;3.20;;;31.10;66.50;;;;;;5050850;28;20291;-83
2023/07/17 11:43:31;;;;;;;4.43;2.60;;;31.10;67.40;;;;;;5051915;28;20208;-84
2023/07/17 11:46:02;;;;;;;5.00;2.60;;;31.00;64.70;;;;;;5054420;28;20207;-80
2023/07/17 11:48:32;;;;;;;6.78;2.97;;;30.80;64.10;;;;;;5051093;28;20211;-82
2023/07/17 11:51:04;;;;;;;6.63;2.85;;;30.70;64.80;;;;;;5065180;28;20208;-81
2023/07/17 11:53:31;;;;;;;4.82;2.92;;;30.70;65.20;;;;;;5051757;28;20208;-78
2023/07/17 11:55:59;;;;;;;5.57;2.60;;;30.60;64.80;;;;;;5044945;28;20180;-79
2023/07/17 11:58:26;;;;;;;4.30;2.80;;;30.50;64.60;;;;;;5042038;28;20614;-76
2023/07/17 12:00:56;;;;;;;7.15;3.08;;;30.70;65.50;;;;;;5044641;28;20227;-77
2023/07/17 12:03:22;;;;;;;6.07;2.90;;;30.70;65.90;;;;;;5041712;28;20596;-76
2023/07/17 12:05:48;;;;;;;4.97;2.92;;;30.40;66.90;;;;;;5048179;28;20241;-78
2023/07/17 12:08:14;;;;;;;9.55;3.38;;;30.50;67.50;;;;;;5045146;28;20191;-76
2023/07/17 12:10:40;;;;;;;5.28;3.10;;;30.50;67.40;;;;;;5041134;28;20190;-76
2023/07/17 12:13:06;;;;;;;6.22;2.60;;;30.60;66.70;;;;;;5043261;28;20219;-77
2023/07/17 12:15:32;;;;;;;5.47;3.10;;;30.60;65.90;;;;;;5043882;28;20299;-77
2023/07/17 12:17:58;;;;;;;7.55;2.88;;;30.40;65.80;;;;;;5060553;28;20235;-77
2023/07/17 12:20:29;;;;;;;5.00;3.10;;;30.60;67.00;;;;;;5044282;28;20246;-77
2023/07/17 12:22:56;;;;;;;4.63;2.90;;;30.50;65.80;;;;;;5058089;23;20952;-73
2023/07/17 12:25:22;;;;;;;4.05;2.72;;;30.20;65.00;;;;;;5032344;28;20330;-74
2023/07/17 12:27:48;;;;;;;8.45;3.22;;;30.10;64.60;;;;;;5025362;28;20210;-73
2023/07/17 12:30:15;;;;;;;5.30;3.05;;;30.10;65.40;;;;;;5022856;28;20667;-73
2023/07/17 12:32:42;;;;;;;4.97;3.00;;;30.10;65.60;;;;;;5026478;28;20216;-72
2023/07/17 12:35:08;;;;;;;6.43;2.90;;;29.80;65.90;;;;;;5020830;28;20997;-71
2023/07/17 12:37:34;;;;;;;5.55;2.92;;;30.00;65.80;;;;;;5018320;28;20177;-73
2023/07/17 12:40:01;;;;;;;4.97;2.58;;;30.00;65.40;;;;;;5015421;28;20217;-71
2023/07/17 12:42:26;;;;;;;3.95;2.30;;;30.00;65.60;;;;;;5019122;28;20238;-72